Wetterdaten: Woche 11.06.18 - 17.06.18 (KW24)
Datum Zeit Temp. A. Pool Temp. Feuchte A. Luftdruck Regen Wind Richtung Sonnenschein ET UV Solar Taupunkt Windchill Windben Empfang
11.06.2018 00:00 19,6 C 25,7 C 85 % 1009,2 hPa 0,0 l/m 6,5 km/h (2 Bft) SW 0,00 h 0,000 mm 0,0 UV-I 0 W/m 17,0 C 19,5 C 8,8 km/h (2 Bft) 98,29 %
11.06.2018 01:00 19,1 C 25,6 C 86 % 1009,2 hPa 0,0 l/m 6,2 km/h (2 Bft) S-SW 0,00 h 0,025 mm 0,0 UV-I 0 W/m 16,7 C 18,9 C 8,4 km/h (2 Bft) 98,00 %
11.06.2018 02:00 18,5 C 25,6 C 87 % 1009,3 hPa 0,0 l/m 5,6 km/h (1 Bft) S-SW 0,00 h 0,026 mm 0,0 UV-I 0 W/m 16,4 C 18,5 C 7,5 km/h (2 Bft) 97,74 %
11.06.2018 03:00 18,1 C 25,5 C 87 % 1009,3 hPa 0,0 l/m 6,0 km/h (2 Bft) S-SW 0,00 h 0,025 mm 0,0 UV-I 0 W/m 15,9 C 18,0 C 8,3 km/h (2 Bft) 95,94 %
11.06.2018 04:00 17,9 C 25,0 C 86 % 1009,2 hPa 0,0 l/m 4,2 km/h (1 Bft) S-SW 0,00 h 0,026 mm 0,0 UV-I 6 W/m 15,6 C 17,9 C 5,8 km/h (2 Bft) 98,75 %
11.06.2018 05:00 17,0 C 25,0 C 90 % 1009,3 hPa 0,0 l/m 3,0 km/h (1 Bft) S-SW 0,73 h 0,000 mm 0,0 UV-I 37 W/m 15,3 C 17,0 C 4,3 km/h (1 Bft) 98,69 %
11.06.2018 06:00 18,0 C 25,0 C 87 % 1009,2 hPa 0,0 l/m 4,7 km/h (1 Bft) S-SW 1,00 h 0,025 mm 0,0 UV-I 139 W/m 15,8 C 18,0 C 6,2 km/h (2 Bft) 97,86 %
11.06.2018 07:00 20,5 C 25,0 C 80 % 1009,3 hPa 0,0 l/m 3,0 km/h (1 Bft) SW 1,00 h 0,076 mm 0,8 UV-I 291 W/m 17,0 C 20,5 C 4,6 km/h (1 Bft) 97,32 %
11.06.2018 08:00 22,8 C 25,0 C 74 % 1009,1 hPa 0,0 l/m 3,8 km/h (1 Bft) NO 1,00 h 0,178 mm 1,7 UV-I 468 W/m 17,8 C 22,8 C 5,6 km/h (1 Bft) 98,76 %
11.06.2018 09:00 24,6 C 25,3 C 67 % 1008,7 hPa 0,0 l/m 5,4 km/h (1 Bft) O-NO 1,00 h 0,305 mm 3,1 UV-I 620 W/m 18,1 C 24,5 C 8,2 km/h (2 Bft) 98,53 %
11.06.2018 10:00 25,8 C 25,6 C 61 % 1008,7 hPa 0,0 l/m 4,1 km/h (1 Bft) O-NO 1,00 h 0,406 mm 4,4 UV-I 729 W/m 17,8 C 25,8 C 6,5 km/h (2 Bft) 97,42 %
11.06.2018 11:00 27,0 C 25,7 C 58 % 1008,6 hPa 0,0 l/m 4,9 km/h (1 Bft) NO 1,00 h 0,483 mm 5,5 UV-I 803 W/m 17,9 C 27,0 C 7,3 km/h (2 Bft) 96,72 %
11.06.2018 12:00 28,2 C 26,1 C 54 % 1008,2 hPa 0,0 l/m 5,5 km/h (1 Bft) N-NO 1,00 h 0,559 mm 6,4 UV-I 878 W/m 17,9 C 28,2 C 8,1 km/h (2 Bft) 98,41 %
11.06.2018 13:00 29,0 C 26,6 C 50 % 1007,3 hPa 0,0 l/m 6,0 km/h (2 Bft) O 1,00 h 0,609 mm 6,3 UV-I 865 W/m 17,4 C 28,9 C 9,1 km/h (2 Bft) 98,87 %
11.06.2018 14:00 29,9 C 26,9 C 45 % 1006,3 hPa 0,0 l/m 5,6 km/h (1 Bft) N-NO 1,00 h 0,610 mm 5,7 UV-I 823 W/m 16,7 C 29,8 C 8,6 km/h (2 Bft) 96,42 %
11.06.2018 15:00 30,7 C 27,2 C 39 % 1005,4 hPa 0,0 l/m 5,8 km/h (1 Bft) S-SO 1,00 h 0,609 mm 4,4 UV-I 728 W/m 15,1 C 30,7 C 9,2 km/h (2 Bft) 98,87 %
11.06.2018 16:00 31,1 C 27,2 C 38 % 1004,7 hPa 0,0 l/m 5,0 km/h (1 Bft) O-SO 1,00 h 0,559 mm 3,1 UV-I 610 W/m 15,2 C 31,1 C 7,3 km/h (2 Bft) 97,56 %
11.06.2018 17:00 30,7 C 27,7 C 40 % 1003,7 hPa 0,0 l/m 9,0 km/h (2 Bft) O 0,63 h 0,457 mm 1,5 UV-I 348 W/m 15,6 C 30,5 C 13,2 km/h (3 Bft) 97,40 %
11.06.2018 18:00 28,4 C 27,2 C 48 % 1003,2 hPa 0,0 l/m 9,4 km/h (2 Bft) NO 0,00 h 0,331 mm 0,6 UV-I 90 W/m 16,3 C 28,0 C 13,4 km/h (3 Bft) 99,04 %
11.06.2018 19:00 27,3 C 27,2 C 53 % 1002,8 hPa 0,0 l/m 11,0 km/h (2 Bft) O 0,00 h 0,152 mm 0,0 UV-I 73 W/m 16,7 C 26,6 C 15,1 km/h (3 Bft) 98,33 %
11.06.2018 20:00 25,2 C 27,2 C 64 % 1002,6 hPa 0,0 l/m 7,0 km/h (2 Bft) O-NO 0,05 h 0,127 mm 0,0 UV-I 27 W/m 17,9 C 24,8 C 9,6 km/h (2 Bft) 97,57 %
11.06.2018 21:00 25,2 C 26,9 C 64 % 1002,6 hPa 0,0 l/m 14,8 km/h (3 Bft) O-NO 0,00 h 0,051 mm 0,0 UV-I 5 W/m 17,9 C 23,7 C 20,9 km/h (4 Bft) 96,87 %
11.06.2018 22:00 22,0 C 26,7 C 77 % 1003,0 hPa 0,0 l/m 4,5 km/h (1 Bft) O-NO 0,00 h 0,101 mm 0,0 UV-I 0 W/m 17,8 C 21,9 C 6,6 km/h (2 Bft) 98,99 %
11.06.2018 23:00 20,9 C 26,7 C 81 % 1003,6 hPa 0,0 l/m 9,9 km/h (2 Bft) W-SW 0,00 h 0,026 mm 0,0 UV-I 0 W/m 17,5 C 19,6 C 14,1 km/h (3 Bft) 97,66 %
12.06.2018 00:00 20,2 C 26,7 C 83 % 1005,2 hPa 0,0 l/m 15,5 km/h (3 Bft) W-SW 0,00 h 0,000 mm 0,0 UV-I 0 W/m 17,3 C 17,5 C 21,3 km/h (4 Bft) 97,00 %
12.06.2018 01:00 19,9 C 26,2 C 84 % 1005,2 hPa 0,0 l/m 9,8 km/h (2 Bft) W-SW 0,00 h 0,051 mm 0,0 UV-I 0 W/m 17,0 C 18,7 C 14,2 km/h (3 Bft) 97,19 %
12.06.2018 02:00 20,0 C 26,1 C 82 % 1004,9 hPa 0,0 l/m 11,4 km/h (2 Bft) SW 0,00 h 0,025 mm 0,0 UV-I 0 W/m 16,9 C 18,4 C 16,2 km/h (3 Bft) 99,26 %
12.06.2018 03:00 19,2 C 26,1 C 85 % 1005,0 hPa 0,0 l/m 5,3 km/h (1 Bft) W 0,00 h 0,026 mm 0,0 UV-I 0 W/m 16,6 C 19,0 C 8,3 km/h (2 Bft) 99,64 %
12.06.2018 04:00 18,6 C 26,1 C 87 % 1005,1 hPa 0,0 l/m 8,2 km/h (2 Bft) W 0,00 h 0,025 mm 0,0 UV-I 3 W/m 16,4 C 17,8 C 13,7 km/h (3 Bft) 97,81 %
12.06.2018 05:00 17,9 C 25,6 C 90 % 1005,4 hPa 0,0 l/m 4,0 km/h (1 Bft) W 0,08 h 0,025 mm 0,0 UV-I 24 W/m 16,2 C 17,9 C 9,1 km/h (2 Bft) 98,39 %
12.06.2018 06:00 18,8 C 25,6 C 88 % 1006,0 hPa 0,0 l/m 4,7 km/h (1 Bft) W-NW 0,00 h 0,026 mm 0,0 UV-I 67 W/m 16,7 C 18,7 C 7,6 km/h (2 Bft) 99,65 %
12.06.2018 07:00 19,4 C 25,6 C 83 % 1006,4 hPa 0,0 l/m 6,1 km/h (2 Bft) W 0,05 h 0,051 mm 0,6 UV-I 164 W/m 16,5 C 19,1 C 9,7 km/h (2 Bft) 97,76 %
12.06.2018 08:00 20,0 C 25,6 C 81 % 1006,7 hPa 0,0 l/m 7,5 km/h (2 Bft) W 0,02 h 0,101 mm 0,7 UV-I 179 W/m 16,6 C 19,3 C 11,9 km/h (2 Bft) 96,88 %
12.06.2018 09:00 21,0 C 25,6 C 77 % 1006,8 hPa 0,0 l/m 5,5 km/h (1 Bft) W 0,77 h 0,127 mm 2,5 UV-I 501 W/m 16,7 C 20,8 C 9,5 km/h (2 Bft) 97,09 %
12.06.2018 10:00 22,1 C 25,8 C 72 % 1006,8 hPa 0,0 l/m 5,7 km/h (1 Bft) N-NO 0,62 h 0,305 mm 3,0 UV-I 489 W/m 16,8 C 21,9 C 9,7 km/h (2 Bft) 99,08 %
12.06.2018 11:00 22,4 C 26,1 C 71 % 1006,7 hPa 0,0 l/m 6,2 km/h (2 Bft) N-NO 0,55 h 0,305 mm 4,1 UV-I 575 W/m 16,9 C 22,1 C 10,3 km/h (2 Bft) 97,74 %
12.06.2018 12:00 23,7 C 26,1 C 65 % 1006,4 hPa 0,0 l/m 6,2 km/h (2 Bft) N-NW 0,70 h 0,381 mm 5,6 UV-I 784 W/m 16,8 C 23,5 C 10,1 km/h (2 Bft) 96,94 %
12.06.2018 13:00 24,7 C 26,4 C 62 % 1005,6 hPa 0,0 l/m 6,5 km/h (2 Bft) W 0,62 h 0,508 mm 5,4 UV-I 733 W/m 16,8 C 24,4 C 10,8 km/h (2 Bft) 97,59 %
12.06.2018 14:00 25,3 C 26,7 C 59 % 1004,4 hPa 0,0 l/m 5,6 km/h (1 Bft) N 0,82 h 0,508 mm 5,0 UV-I 743 W/m 16,7 C 25,1 C 8,9 km/h (2 Bft) 98,95 %
12.06.2018 15:00 24,7 C 26,7 C 60 % 1004,0 hPa 0,0 l/m 5,3 km/h (1 Bft) N-NO 0,17 h 0,508 mm 2,2 UV-I 332 W/m 16,4 C 24,5 C 8,1 km/h (2 Bft) 96,99 %
12.06.2018 16:00 23,3 C 26,7 C 66 % 1004,4 hPa 0,4 l/m 5,7 km/h (1 Bft) W-SW 0,00 h 0,228 mm 0,5 UV-I 38 W/m 16,5 C 23,0 C 8,3 km/h (2 Bft) 97,32 %
12.06.2018 17:00 19,7 C 26,7 C 88 % 1004,4 hPa 3,2 l/m 6,8 km/h (2 Bft) S-SW 0,00 h 0,051 mm 0,0 UV-I 13 W/m 17,6 C 19,1 C 9,8 km/h (2 Bft) 97,89 %
12.06.2018 18:00 19,0 C 26,7 C 93 % 1003,7 hPa 1,0 l/m 9,4 km/h (2 Bft) S 0,00 h 0,026 mm 0,0 UV-I 36 W/m 17,9 C 17,7 C 13,5 km/h (3 Bft) 98,88 %
12.06.2018 19:00 18,9 C 26,2 C 93 % 1004,1 hPa 0,2 l/m 6,1 km/h (2 Bft) S-SO 0,00 h 0,025 mm 0,0 UV-I 56 W/m 17,8 C 18,6 C 8,9 km/h (2 Bft) 97,02 %
12.06.2018 20:00 18,6 C 26,1 C 95 % 1004,1 hPa 0,0 l/m 4,5 km/h (1 Bft) NO 0,00 h 0,025 mm 0,0 UV-I 32 W/m 17,8 C 18,6 C 6,0 km/h (2 Bft) 97,73 %
12.06.2018 21:00 18,4 C 26,1 C 94 % 1004,4 hPa 0,0 l/m 5,3 km/h (1 Bft) O-NO 0,00 h 0,026 mm 0,0 UV-I 0 W/m 17,4 C 18,3 C 7,4 km/h (2 Bft) 98,27 %
12.06.2018 22:00 17,9 C 26,1 C 94 % 1004,6 hPa 0,0 l/m 3,1 km/h (1 Bft) SO 0,00 h 0,000 mm 0,0 UV-I 0 W/m 17,0 C 17,9 C 5,1 km/h (1 Bft) 99,35 %
12.06.2018 23:00 17,6 C 26,1 C 95 % 1004,6 hPa 0,0 l/m 1,4 km/h (1 Bft) S-SW 0,00 h 0,000 mm 0,0 UV-I 0 W/m 16,7 C 17,6 C 2,4 km/h (1 Bft) 96,71 %
13.06.2018 00:00 17,5 C 25,8 C 96 % 1004,5 hPa 4,0 l/m 5,0 km/h (1 Bft) SW 0,00 h 0,000 mm 0,0 UV-I 0 W/m 16,9 C 17,2 C 7,5 km/h (2 Bft) 97,57 %
13.06.2018 01:00 16,7 C 25,6 C 96 % 1004,3 hPa 2,6 l/m 0,9 km/h (0 Bft) W-SW 0,00 h 0,000 mm 0,0 UV-I 0 W/m 16,0 C 16,7 C 2,1 km/h (1 Bft) 98,31 %
13.06.2018 02:00 16,0 C 25,6 C 97 % 1004,2 hPa 0,2 l/m 1,0 km/h (0 Bft) W-SW 0,00 h 0,000 mm 0,0 UV-I 0 W/m 15,5 C 16,0 C 2,2 km/h (1 Bft) 98,63 %
13.06.2018 03:00 16,2 C 25,6 C 97 % 1004,0 hPa 0,0 l/m 3,0 km/h (1 Bft) W 0,00 h 0,000 mm 0,0 UV-I 0 W/m 15,7 C 16,2 C 5,0 km/h (1 Bft) 97,14 %
13.06.2018 04:00 16,0 C 25,2 C 97 % 1003,9 hPa 0,0 l/m 2,2 km/h (1 Bft) W 0,00 h 0,000 mm 0,0 UV-I 0 W/m 15,5 C 16,0 C 3,7 km/h (1 Bft) 97,82 %
13.06.2018 05:00 16,2 C 25,0 C 97 % 1003,9 hPa 0,2 l/m 4,1 km/h (1 Bft) SW 0,00 h 0,000 mm 0,0 UV-I 17 W/m 15,7 C 16,2 C 6,1 km/h (2 Bft) 98,78 %
13.06.2018 06:00 16,4 C 25,0 C 97 % 1003,7 hPa 0,0 l/m 1,7 km/h (1 Bft) W 0,00 h 0,000 mm 0,0 UV-I 41 W/m 15,9 C 16,4 C 3,3 km/h (1 Bft) 98,73 %
13.06.2018 07:00 16,5 C 25,0 C 97 % 1003,7 hPa 0,0 l/m 4,6 km/h (1 Bft) N-NO 0,12 h 0,025 mm 0,4 UV-I 127 W/m 16,0 C 16,3 C 6,8 km/h (2 Bft) 97,13 %
13.06.2018 08:00 16,5 C 25,0 C 96 % 1003,9 hPa 0,0 l/m 7,1 km/h (2 Bft) N-NO 0,00 h 0,077 mm 0,5 UV-I 110 W/m 15,8 C 15,9 C 10,4 km/h (2 Bft) 98,00 %
13.06.2018 09:00 15,6 C 25,0 C 96 % 1004,2 hPa 0,0 l/m 11,8 km/h (2 Bft) N-NO 0,00 h 0,050 mm 0,6 UV-I 80 W/m 14,9 C 13,2 C 16,5 km/h (3 Bft) 98,84 %
13.06.2018 10:00 15,4 C 25,0 C 95 % 1004,6 hPa 0,0 l/m 10,4 km/h (2 Bft) N 0,00 h 0,051 mm 0,6 UV-I 101 W/m 14,7 C 13,5 C 14,5 km/h (3 Bft) 98,55 %
13.06.2018 11:00 15,2 C 24,5 C 95 % 1005,0 hPa 2,0 l/m 8,0 km/h (2 Bft) N-NO 0,00 h 0,051 mm 0,8 UV-I 117 W/m 14,5 C 14,3 C 11,9 km/h (2 Bft) 97,69 %
13.06.2018 12:00 15,2 C 24,4 C 95 % 1005,5 hPa 0,6 l/m 8,9 km/h (2 Bft) N-NO 0,00 h 0,076 mm 1,4 UV-I 183 W/m 14,4 C 13,9 C 13,4 km/h (3 Bft) 97,49 %
13.06.2018 13:00 14,9 C 24,4 C 94 % 1006,1 hPa 0,4 l/m 6,6 km/h (2 Bft) N-NO 0,00 h 0,102 mm 0,7 UV-I 100 W/m 14,0 C 14,5 C 10,3 km/h (2 Bft) 99,19 %
13.06.2018 14:00 14,9 C 24,4 C 96 % 1006,7 hPa 0,8 l/m 3,4 km/h (1 Bft) W-NW 0,00 h 0,051 mm 0,7 UV-I 97 W/m 14,2 C 14,8 C 6,4 km/h (2 Bft) 97,65 %
13.06.2018 15:00 14,8 C 24,4 C 96 % 1007,4 hPa 2,2 l/m 2,3 km/h (1 Bft) N 0,00 h 0,050 mm 0,5 UV-I 87 W/m 14,2 C 14,8 C 4,7 km/h (1 Bft) 97,13 %
13.06.2018 16:00 14,7 C 24,4 C 96 % 1007,8 hPa 2,2 l/m 3,9 km/h (1 Bft) N 0,00 h 0,051 mm 0,5 UV-I 88 W/m 14,1 C 14,5 C 6,8 km/h (2 Bft) 97,67 %
13.06.2018 17:00 14,9 C 23,9 C 96 % 1008,3 hPa 0,8 l/m 1,4 km/h (1 Bft) W 0,00 h 0,051 mm 0,5 UV-I 82 W/m 14,3 C 14,9 C 3,1 km/h (1 Bft) 99,46 %
13.06.2018 18:00 15,0 C 23,9 C 96 % 1008,9 hPa 1,2 l/m 2,6 km/h (1 Bft) W 0,00 h 0,051 mm 0,0 UV-I 45 W/m 14,4 C 15,0 C 4,6 km/h (1 Bft) 97,47 %
13.06.2018 19:00 14,9 C 23,9 C 96 % 1009,6 hPa 1,4 l/m 1,8 km/h (1 Bft) N-NO 0,00 h 0,025 mm 0,0 UV-I 33 W/m 14,3 C 14,9 C 3,4 km/h (1 Bft) 97,14 %
13.06.2018 20:00 14,5 C 23,9 C 97 % 1010,1 hPa 0,2 l/m 2,1 km/h (1 Bft) W 0,00 h 0,026 mm 0,0 UV-I 12 W/m 14,0 C 14,5 C 4,4 km/h (1 Bft) 97,83 %
13.06.2018 21:00 14,2 C 23,9 C 97 % 1011,1 hPa 0,4 l/m 2,4 km/h (1 Bft) NW 0,00 h 0,000 mm 0,0 UV-I 0 W/m 13,7 C 14,1 C 5,2 km/h (1 Bft) 99,25 %
13.06.2018 22:00 13,5 C 23,8 C 95 % 1012,0 hPa 0,4 l/m 4,9 km/h (1 Bft) N 0,00 h 0,000 mm 0,0 UV-I 0 W/m 12,7 C 13,3 C 8,0 km/h (2 Bft) 96,92 %
13.06.2018 23:00 13,6 C 23,3 C 97 % 1012,7 hPa 0,2 l/m 3,8 km/h (1 Bft) W-SW 0,00 h 0,000 mm 0,0 UV-I 0 W/m 13,0 C 13,5 C 6,2 km/h (2 Bft) 97,73 %
14.06.2018 00:00 13,5 C 23,3 C 97 % 1013,2 hPa 1,0 l/m 1,5 km/h (1 Bft) W 0,00 h 0,000 mm 0,0 UV-I 0 W/m 13,0 C 13,5 C 2,9 km/h (1 Bft) 97,96 %
14.06.2018 01:00 13,0 C 23,3 C 97 % 1013,4 hPa 0,8 l/m 3,5 km/h (1 Bft) W 0,00 h 0,000 mm 0,0 UV-I 0 W/m 12,5 C 13,0 C 5,8 km/h (2 Bft) 99,19 %
14.06.2018 02:00 12,1 C 23,3 C 97 % 1013,7 hPa 1,0 l/m 2,4 km/h (1 Bft) W 0,00 h 0,000 mm 0,0 UV-I 0 W/m 11,7 C 12,1 C 4,3 km/h (1 Bft) 96,43 %
14.06.2018 03:00 12,2 C 23,2 C 97 % 1013,9 hPa 0,4 l/m 7,6 km/h (2 Bft) W 0,00 h 0,000 mm 0,0 UV-I 0 W/m 11,7 C 11,2 C 11,1 km/h (2 Bft) 97,75 %
14.06.2018 04:00 12,1 C 22,8 C 97 % 1014,1 hPa 0,0 l/m 9,0 km/h (2 Bft) W 0,00 h 0,000 mm 0,0 UV-I 0 W/m 11,6 C 10,4 C 13,3 km/h (3 Bft) 97,96 %
14.06.2018 05:00 11,7 C 22,8 C 97 % 1014,3 hPa 0,0 l/m 8,2 km/h (2 Bft) W 0,00 h 0,000 mm 0,0 UV-I 9 W/m 11,2 C 10,6 C 11,8 km/h (2 Bft) 98,72 %
14.06.2018 06:00 11,6 C 22,8 C 96 % 1014,6 hPa 0,0 l/m 4,9 km/h (1 Bft) SW 0,00 h 0,000 mm 0,0 UV-I 38 W/m 11,0 C 11,5 C 7,0 km/h (2 Bft) 95,50 %
14.06.2018 07:00 11,9 C 22,8 C 96 % 1014,8 hPa 0,0 l/m 6,0 km/h (2 Bft) SW 0,00 h 0,025 mm 0,0 UV-I 54 W/m 11,3 C 11,7 C 8,7 km/h (2 Bft) 98,41 %
14.06.2018 08:00 12,2 C 22,4 C 95 % 1015,0 hPa 0,0 l/m 6,6 km/h (2 Bft) SW 0,00 h 0,026 mm 0,8 UV-I 114 W/m 11,4 C 11,8 C 9,6 km/h (2 Bft) 98,31 %
14.06.2018 09:00 13,3 C 22,2 C 92 % 1015,1 hPa 0,0 l/m 6,9 km/h (2 Bft) W-SW 0,00 h 0,051 mm 0,9 UV-I 169 W/m 12,0 C 12,6 C 9,9 km/h (2 Bft) 99,11 %
14.06.2018 10:00 13,8 C 22,2 C 89 % 1015,4 hPa 0,0 l/m 4,3 km/h (1 Bft) W-SW 0,07 h 0,076 mm 1,7 UV-I 257 W/m 12,0 C 13,7 C 5,9 km/h (2 Bft) 95,93 %
14.06.2018 11:00 15,9 C 22,8 C 75 % 1015,4 hPa 0,0 l/m 4,9 km/h (1 Bft) W-SW 1,00 h 0,152 mm 4,5 UV-I 679 W/m 11,5 C 15,7 C 7,9 km/h (2 Bft) 99,09 %
14.06.2018 12:00 17,0 C 22,8 C 68 % 1015,2 hPa 0,0 l/m 5,9 km/h (2 Bft) W-SW 0,58 h 0,407 mm 4,6 UV-I 733 W/m 10,9 C 16,7 C 9,2 km/h (2 Bft) 98,36 %
14.06.2018 13:00 16,3 C 22,8 C 71 % 1015,0 hPa 0,0 l/m 7,3 km/h (2 Bft) N-NO 0,00 h 0,406 mm 2,1 UV-I 285 W/m 11,0 C 15,7 C 10,8 km/h (2 Bft) 99,23 %
14.06.2018 14:00 17,4 C 22,8 C 63 % 1014,6 hPa 0,0 l/m 4,6 km/h (1 Bft) N 0,53 h 0,178 mm 3,7 UV-I 523 W/m 10,1 C 17,2 C 7,4 km/h (2 Bft) 96,93 %
14.06.2018 15:00 18,7 C 23,2 C 56 % 1014,3 hPa 0,0 l/m 5,8 km/h (1 Bft) N-NO 0,77 h 0,330 mm 3,8 UV-I 684 W/m 9,8 C 18,4 C 9,4 km/h (2 Bft) 97,13 %
14.06.2018 16:00 18,8 C 23,3 C 57 % 1013,8 hPa 0,0 l/m 5,0 km/h (1 Bft) W 0,38 h 0,406 mm 1,8 UV-I 391 W/m 10,0 C 18,5 C 8,2 km/h (2 Bft) 98,93 %
14.06.2018 17:00 18,0 C 23,3 C 61 % 1013,7 hPa 0,0 l/m 4,0 km/h (1 Bft) N-NO 0,00 h 0,254 mm 0,6 UV-I 137 W/m 10,5 C 18,0 C 5,7 km/h (1 Bft) 98,91 %
14.06.2018 18:00 18,0 C 23,3 C 61 % 1013,7 hPa 0,0 l/m 4,0 km/h (1 Bft) N 0,38 h 0,102 mm 0,5 UV-I 185 W/m 10,4 C 17,9 C 6,2 km/h (2 Bft) 98,92 %
14.06.2018 19:00 17,3 C 23,3 C 66 % 1013,8 hPa 0,0 l/m 5,3 km/h (1 Bft) O-SO 0,25 h 0,127 mm 0,0 UV-I 106 W/m 10,9 C 17,1 C 8,1 km/h (2 Bft) 96,10 %
14.06.2018 20:00 16,4 C 23,0 C 71 % 1014,1 hPa 0,0 l/m 4,5 km/h (1 Bft) O 0,88 h 0,076 mm 0,0 UV-I 46 W/m 11,2 C 16,4 C 6,5 km/h (2 Bft) 98,23 %
14.06.2018 21:00 15,3 C 22,8 C 77 % 1014,6 hPa 0,0 l/m 4,2 km/h (1 Bft) O-SO 0,00 h 0,051 mm 0,0 UV-I 7 W/m 11,3 C 15,3 C 5,9 km/h (2 Bft) 98,13 %
14.06.2018 22:00 14,5 C 22,8 C 81 % 1015,0 hPa 0,0 l/m 3,0 km/h (1 Bft) O-SO 0,00 h 0,025 mm 0,0 UV-I 0 W/m 11,3 C 14,5 C 4,4 km/h (1 Bft) 99,07 %
14.06.2018 23:00 13,8 C 22,8 C 87 % 1015,4 hPa 0,0 l/m 1,2 km/h (1 Bft) SW 0,00 h 0,000 mm 0,0 UV-I 0 W/m 11,7 C 13,8 C 2,0 km/h (1 Bft) 96,46 %
15.06.2018 00:00 13,8 C 22,8 C 88 % 1015,5 hPa 0,0 l/m 2,3 km/h (1 Bft) SW 0,00 h 0,000 mm 0,0 UV-I 0 W/m 11,8 C 13,8 C 3,5 km/h (1 Bft) 99,13 %
15.06.2018 01:00 13,7 C 22,3 C 89 % 1015,4 hPa 0,0 l/m 3,1 km/h (1 Bft) SW 0,00 h 0,000 mm 0,0 UV-I 0 W/m 11,9 C 13,7 C 4,3 km/h (1 Bft) 97,86 %
15.06.2018 02:00 13,3 C 22,2 C 90 % 1015,4 hPa 0,0 l/m 4,7 km/h (1 Bft) S-SW 0,00 h 0,000 mm 0,0 UV-I 0 W/m 11,7 C 13,3 C 6,5 km/h (2 Bft) 97,47 %
15.06.2018 03:00 12,8 C 22,2 C 92 % 1015,3 hPa 0,0 l/m 3,2 km/h (1 Bft) S-SW 0,00 h 0,000 mm 0,0 UV-I 0 W/m 11,4 C 12,8 C 4,8 km/h (1 Bft) 97,51 %
15.06.2018 04:00 12,4 C 22,2 C 92 % 1015,3 hPa 0,0 l/m 3,4 km/h (1 Bft) SW 0,00 h 0,000 mm 0,0 UV-I 4 W/m 11,1 C 12,4 C 5,0 km/h (1 Bft) 98,74 %
15.06.2018 05:00 11,9 C 22,2 C 92 % 1015,4 hPa 0,0 l/m 4,7 km/h (1 Bft) SW 0,18 h 0,000 mm 0,0 UV-I 27 W/m 10,6 C 11,9 C 6,3 km/h (2 Bft) 98,16 %
15.06.2018 06:00 12,1 C 21,7 C 91 % 1015,6 hPa 0,0 l/m 3,2 km/h (1 Bft) W-NW 0,18 h 0,025 mm 0,0 UV-I 91 W/m 10,7 C 12,1 C 4,8 km/h (1 Bft) 96,91 %
15.06.2018 07:00 13,8 C 21,7 C 86 % 1015,8 hPa 0,0 l/m 3,4 km/h (1 Bft) W-SW 0,58 h 0,051 mm 0,6 UV-I 202 W/m 11,5 C 13,8 C 5,1 km/h (1 Bft) 98,26 %
15.06.2018 08:00 15,1 C 21,7 C 80 % 1016,0 hPa 0,0 l/m 4,1 km/h (1 Bft) W-SW 0,55 h 0,102 mm 1,1 UV-I 285 W/m 11,7 C 15,1 C 5,9 km/h (2 Bft) 98,65 %
15.06.2018 09:00 16,6 C 21,9 C 70 % 1015,9 hPa 0,0 l/m 4,4 km/h (1 Bft) W 0,95 h 0,152 mm 2,1 UV-I 441 W/m 11,1 C 16,5 C 7,3 km/h (2 Bft) 97,04 %
15.06.2018 10:00 17,7 C 22,2 C 64 % 1015,8 hPa 0,0 l/m 4,7 km/h (1 Bft) W-SW 0,85 h 0,254 mm 3,1 UV-I 477 W/m 10,9 C 17,6 C 7,3 km/h (2 Bft) 98,18 %
15.06.2018 11:00 18,3 C 22,2 C 59 % 1015,5 hPa 0,0 l/m 6,7 km/h (2 Bft) W 0,30 h 0,305 mm 3,6 UV-I 509 W/m 10,1 C 17,8 C 10,7 km/h (2 Bft) 98,32 %
15.06.2018 12:00 19,6 C 22,2 C 53 % 1015,5 hPa 0,0 l/m 6,2 km/h (2 Bft) W-SW 0,83 h 0,330 mm 4,6 UV-I 651 W/m 9,7 C 19,2 C 10,1 km/h (2 Bft) 99,17 %
15.06.2018 13:00 19,9 C 22,7 C 51 % 1015,4 hPa 0,0 l/m 6,9 km/h (2 Bft) W 0,22 h 0,407 mm 4,1 UV-I 515 W/m 9,4 C 19,3 C 10,3 km/h (2 Bft) 97,80 %
15.06.2018 14:00 20,9 C 22,8 C 49 % 1015,1 hPa 0,0 l/m 6,7 km/h (2 Bft) W 0,72 h 0,330 mm 4,9 UV-I 725 W/m 9,7 C 20,4 C 10,4 km/h (2 Bft) 97,27 %
15.06.2018 15:00 21,4 C 23,0 C 47 % 1014,9 hPa 0,0 l/m 6,5 km/h (2 Bft) W 0,77 h 0,482 mm 3,9 UV-I 651 W/m 9,6 C 21,0 C 10,3 km/h (2 Bft) 98,14 %
15.06.2018 16:00 21,7 C 23,3 C 48 % 1014,6 hPa 0,0 l/m 5,9 km/h (2 Bft) W 0,42 h 0,458 mm 2,2 UV-I 485 W/m 10,1 C 21,4 C 9,0 km/h (2 Bft) 99,32 %
15.06.2018 17:00 21,2 C 23,3 C 48 % 1014,4 hPa 0,0 l/m 6,0 km/h (2 Bft) S-SW 0,22 h 0,330 mm 1,3 UV-I 267 W/m 9,9 C 20,9 C 8,6 km/h (2 Bft) 97,97 %
15.06.2018 18:00 20,9 C 23,3 C 51 % 1014,0 hPa 0,0 l/m 5,1 km/h (1 Bft) S-SW 0,43 h 0,203 mm 0,7 UV-I 177 W/m 10,3 C 20,8 C 7,4 km/h (2 Bft) 97,35 %
15.06.2018 19:00 20,9 C 23,3 C 53 % 1014,1 hPa 0,0 l/m 4,8 km/h (1 Bft) W-SW 0,38 h 0,152 mm 0,0 UV-I 103 W/m 10,8 C 20,8 C 7,2 km/h (2 Bft) 97,47 %
15.06.2018 20:00 18,1 C 23,3 C 69 % 1014,2 hPa 0,0 l/m 2,1 km/h (1 Bft) SW 0,15 h 0,102 mm 0,0 UV-I 33 W/m 12,3 C 18,1 C 3,0 km/h (1 Bft) 99,62 %
15.06.2018 21:00 15,5 C 22,8 C 78 % 1014,6 hPa 0,0 l/m 2,1 km/h (1 Bft) SW 0,00 h 0,025 mm 0,0 UV-I 6 W/m 11,7 C 15,5 C 2,9 km/h (1 Bft) 98,07 %
15.06.2018 22:00 15,5 C 22,8 C 77 % 1014,9 hPa 0,0 l/m 4,4 km/h (1 Bft) S-SW 0,00 h 0,000 mm 0,0 UV-I 0 W/m 11,4 C 15,5 C 5,9 km/h (2 Bft) 97,51 %
15.06.2018 23:00 14,9 C 22,8 C 78 % 1015,1 hPa 0,0 l/m 5,6 km/h (1 Bft) S-SW 0,00 h 0,026 mm 0,0 UV-I 0 W/m 11,0 C 14,9 C 7,4 km/h (2 Bft) 97,93 %
16.06.2018 00:00 13,8 C 22,8 C 82 % 1015,1 hPa 0,0 l/m 5,3 km/h (1 Bft) SW 0,00 h 0,000 mm 0,0 UV-I 0 W/m 10,7 C 13,8 C 6,8 km/h (2 Bft) 99,38 %
16.06.2018 01:00 13,0 C 22,4 C 83 % 1015,3 hPa 0,0 l/m 3,8 km/h (1 Bft) S-SW 0,00 h 0,025 mm 0,0 UV-I 0 W/m 10,3 C 13,0 C 5,0 km/h (1 Bft) 97,37 %
16.06.2018 02:00 11,9 C 22,2 C 88 % 1015,2 hPa 0,0 l/m 2,0 km/h (1 Bft) SW 0,00 h 0,000 mm 0,0 UV-I 0 W/m 10,0 C 11,9 C 2,7 km/h (1 Bft) 98,23 %
16.06.2018 03:00 12,1 C 22,2 C 87 % 1014,8 hPa 0,0 l/m 4,1 km/h (1 Bft) S-SW 0,00 h 0,000 mm 0,0 UV-I 0 W/m 10,0 C 12,1 C 5,4 km/h (1 Bft) 98,48 %
16.06.2018 04:00 11,1 C 22,2 C 91 % 1014,7 hPa 0,0 l/m 2,0 km/h (1 Bft) SW 0,00 h 0,000 mm 0,0 UV-I 5 W/m 9,6 C 11,1 C 2,8 km/h (1 Bft) 99,00 %
16.06.2018 05:00 11,3 C 21,8 C 90 % 1014,8 hPa 0,0 l/m 3,7 km/h (1 Bft) S-SW 0,50 h 0,000 mm 0,0 UV-I 32 W/m 9,8 C 11,3 C 5,1 km/h (1 Bft) 97,23 %
16.06.2018 06:00 12,7 C 21,7 C 87 % 1015,1 hPa 0,0 l/m 3,7 km/h (1 Bft) SW 1,00 h 0,026 mm 0,0 UV-I 139 W/m 10,6 C 12,7 C 4,9 km/h (1 Bft) 98,93 %
16.06.2018 07:00 15,1 C 21,7 C 82 % 1015,1 hPa 0,0 l/m 3,8 km/h (1 Bft) SW 1,00 h 0,076 mm 0,7 UV-I 307 W/m 12,0 C 15,1 C 5,3 km/h (1 Bft) 98,79 %
16.06.2018 08:00 17,1 C 21,8 C 74 % 1015,2 hPa 0,0 l/m 2,4 km/h (1 Bft) W-SW 1,00 h 0,178 mm 1,6 UV-I 510 W/m 12,4 C 17,1 C 3,7 km/h (1 Bft) 96,82 %
16.06.2018 09:00 19,6 C 22,2 C 66 % 1015,1 hPa 0,0 l/m 3,3 km/h (1 Bft) N-NO 1,00 h 0,279 mm 2,8 UV-I 627 W/m 13,0 C 19,6 C 5,0 km/h (1 Bft) 98,79 %
16.06.2018 10:00 21,1 C 22,2 C 61 % 1014,9 hPa 0,0 l/m 3,3 km/h (1 Bft) O 1,00 h 0,381 mm 4,2 UV-I 756 W/m 13,2 C 21,1 C 5,3 km/h (1 Bft) 98,75 %
16.06.2018 11:00 22,7 C 22,8 C 54 % 1014,7 hPa 0,0 l/m 6,1 km/h (2 Bft) O-SO 1,00 h 0,457 mm 5,2 UV-I 864 W/m 12,8 C 22,4 C 9,7 km/h (2 Bft) 98,26 %
16.06.2018 12:00 23,1 C 23,0 C 50 % 1014,4 hPa 0,0 l/m 5,9 km/h (2 Bft) O-NO 0,78 h 0,559 mm 5,1 UV-I 793 W/m 12,2 C 22,8 C 9,2 km/h (2 Bft) 97,40 %
16.06.2018 13:00 23,6 C 23,3 C 48 % 1014,1 hPa 0,0 l/m 6,9 km/h (2 Bft) O-SO 0,90 h 0,457 mm 5,0 UV-I 686 W/m 12,0 C 23,2 C 10,7 km/h (2 Bft) 98,52 %
16.06.2018 14:00 24,0 C 23,5 C 47 % 1013,7 hPa 0,0 l/m 5,6 km/h (1 Bft) O-NO 0,98 h 0,508 mm 4,8 UV-I 814 W/m 12,1 C 23,8 C 8,7 km/h (2 Bft) 99,24 %
16.06.2018 15:00 23,2 C 23,9 C 54 % 1013,6 hPa 0,0 l/m 7,6 km/h (2 Bft) N-NO 0,32 h 0,559 mm 2,3 UV-I 412 W/m 13,2 C 22,7 C 10,7 km/h (2 Bft) 97,82 %
16.06.2018 16:00 22,0 C 23,9 C 59 % 1013,4 hPa 0,0 l/m 6,2 km/h (2 Bft) NO 0,00 h 0,330 mm 1,0 UV-I 178 W/m 13,5 C 21,8 C 8,4 km/h (2 Bft) 97,71 %
16.06.2018 17:00 21,5 C 23,9 C 62 % 1013,1 hPa 0,0 l/m 5,6 km/h (1 Bft) NO 0,00 h 0,153 mm 0,6 UV-I 132 W/m 13,9 C 21,5 C 7,5 km/h (2 Bft) 98,12 %
16.06.2018 18:00 22,1 C 23,9 C 56 % 1012,9 hPa 0,0 l/m 5,9 km/h (2 Bft) O-NO 0,00 h 0,127 mm 0,5 UV-I 161 W/m 13,0 C 22,0 C 8,6 km/h (2 Bft) 99,28 %
16.06.2018 19:00 22,3 C 23,9 C 58 % 1012,9 hPa 0,0 l/m 4,5 km/h (1 Bft) O 0,62 h 0,152 mm 0,0 UV-I 145 W/m 13,5 C 22,2 C 6,7 km/h (2 Bft) 97,45 %
16.06.2018 20:00 21,6 C 23,6 C 60 % 1013,0 hPa 0,0 l/m 1,9 km/h (1 Bft) SO 0,90 h 0,127 mm 0,0 UV-I 58 W/m 13,4 C 21,6 C 2,9 km/h (1 Bft) 97,15 %
16.06.2018 21:00 18,9 C 23,3 C 71 % 1013,3 hPa 0,0 l/m 2,9 km/h (1 Bft) SO 0,00 h 0,051 mm 0,0 UV-I 6 W/m 13,5 C 18,9 C 4,1 km/h (1 Bft) 98,08 %
16.06.2018 22:00 17,0 C 23,3 C 79 % 1013,7 hPa 0,0 l/m 0,1 km/h (0 Bft) SO 0,00 h 0,025 mm 0,0 UV-I 0 W/m 13,3 C 17,0 C 0,2 km/h (0 Bft) 99,47 %
16.06.2018 23:00 16,8 C 23,3 C 79 % 1013,9 hPa 0,0 l/m 0,2 km/h (0 Bft) SO 0,00 h 0,000 mm 0,0 UV-I 0 W/m 13,2 C 16,8 C 0,2 km/h (0 Bft) 97,50 %
17.06.2018 00:00 17,0 C 23,3 C 80 % 1014,0 hPa 0,0 l/m 2,0 km/h (1 Bft) SO 0,00 h 0,000 mm 0,0 UV-I 0 W/m 13,5 C 17,0 C 3,0 km/h (1 Bft) 97,70 %
17.06.2018 01:00 17,0 C 23,3 C 81 % 1014,0 hPa 0,0 l/m 2,2 km/h (1 Bft) SW 0,00 h 0,000 mm 0,0 UV-I 0 W/m 13,7 C 17,0 C 3,2 km/h (1 Bft) 97,96 %
17.06.2018 02:00 16,8 C 23,0 C 83 % 1014,0 hPa 0,0 l/m 3,6 km/h (1 Bft) SW 0,00 h 0,000 mm 0,0 UV-I 0 W/m 13,9 C 16,8 C 5,0 km/h (1 Bft) 99,13 %
17.06.2018 03:00 16,5 C 22,8 C 85 % 1013,8 hPa 0,0 l/m 3,0 km/h (1 Bft) SW 0,00 h 0,025 mm 0,0 UV-I 0 W/m 13,9 C 16,5 C 4,4 km/h (1 Bft) 96,41 %
17.06.2018 04:00 16,0 C 22,8 C 87 % 1013,7 hPa 0,0 l/m 3,0 km/h (1 Bft) SW 0,00 h 0,000 mm 0,0 UV-I 5 W/m 13,8 C 16,0 C 4,2 km/h (1 Bft) 98,25 %
17.06.2018 05:00 15,8 C 22,8 C 88 % 1013,8 hPa 0,0 l/m 5,1 km/h (1 Bft) SW 0,03 h 0,000 mm 0,0 UV-I 21 W/m 13,7 C 15,8 C 6,8 km/h (2 Bft) 97,93 %
17.06.2018 06:00 16,0 C 22,8 C 86 % 1014,1 hPa 0,0 l/m 5,3 km/h (1 Bft) W-SW 0,00 h 0,026 mm 0,0 UV-I 70 W/m 13,7 C 16,0 C 7,3 km/h (2 Bft) 99,08 %
17.06.2018 07:00 16,5 C 22,8 C 85 % 1014,4 hPa 0,0 l/m 5,8 km/h (2 Bft) SW 0,08 h 0,051 mm 0,6 UV-I 167 W/m 13,9 C 16,3 C 8,2 km/h (2 Bft) 96,50 %
17.06.2018 08:00 18,5 C 22,8 C 77 % 1014,9 hPa 0,0 l/m 4,4 km/h (1 Bft) W-SW 0,38 h 0,101 mm 1,2 UV-I 288 W/m 14,4 C 18,5 C 6,7 km/h (2 Bft) 98,24 %
17.06.2018 09:00 20,6 C 22,8 C 67 % 1015,1 hPa 0,0 l/m 5,7 km/h (1 Bft) W-SW 0,60 h 0,178 mm 2,3 UV-I 455 W/m 14,3 C 20,4 C 8,6 km/h (2 Bft) 98,28 %
17.06.2018 10:00 22,6 C 22,8 C 60 % 1015,0 hPa 0,0 l/m 4,9 km/h (1 Bft) W 0,90 h 0,305 mm 3,7 UV-I 668 W/m 14,5 C 22,5 C 7,9 km/h (2 Bft) 99,09 %
17.06.2018 11:00 24,1 C 23,3 C 53 % 1014,6 hPa 0,0 l/m 7,7 km/h (2 Bft) SW 1,00 h 0,432 mm 5,3 UV-I 845 W/m 13,9 C 23,5 C 11,6 km/h (2 Bft) 96,22 %
17.06.2018 12:00 25,1 C 23,6 C 48 % 1014,4 hPa 0,0 l/m 9,0 km/h (2 Bft) SW 0,82 h 0,584 mm 5,2 UV-I 831 W/m 13,4 C 24,4 C 13,3 km/h (3 Bft) 99,39 %
17.06.2018 13:00 24,8 C 23,9 C 47 % 1014,2 hPa 0,0 l/m 3,5 km/h (1 Bft) W 0,40 h 0,559 mm 3,2 UV-I 430 W/m 12,7 C 24,8 C 6,1 km/h (2 Bft) 98,33 %
17.06.2018 14:00 25,5 C 23,9 C 45 % 1013,9 hPa 0,0 l/m 8,0 km/h (2 Bft) W-SW 0,52 h 0,330 mm 3,6 UV-I 526 W/m 12,6 C 25,1 C 12,2 km/h (2 Bft) 99,51 %
17.06.2018 15:00 25,9 C 23,9 C 41 % 1013,5 hPa 0,0 l/m 6,7 km/h (2 Bft) W 0,57 h 0,406 mm 3,2 UV-I 592 W/m 11,8 C 25,6 C 10,4 km/h (2 Bft) 96,42 %
17.06.2018 16:00 26,2 C 24,3 C 42 % 1013,1 hPa 0,0 l/m 6,1 km/h (2 Bft) W 0,60 h 0,432 mm 2,3 UV-I 512 W/m 12,1 C 26,0 C 9,9 km/h (2 Bft) 99,04 %
17.06.2018 17:00 26,8 C 24,4 C 38 % 1012,8 hPa 0,0 l/m 7,4 km/h (2 Bft) W 0,92 h 0,381 mm 1,7 UV-I 464 W/m 11,2 C 26,5 C 12,4 km/h (3 Bft) 98,09 %
17.06.2018 18:00 25,9 C 24,4 C 42 % 1012,8 hPa 0,0 l/m 5,5 km/h (1 Bft) W 0,55 h 0,381 mm 0,7 UV-I 217 W/m 12,1 C 25,7 C 8,8 km/h (2 Bft) 99,10 %
17.06.2018 19:00 24,8 C 24,4 C 49 % 1013,1 hPa 0,0 l/m 8,2 km/h (2 Bft) W 0,95 h 0,203 mm 0,0 UV-I 174 W/m 13,4 C 24,3 C 15,5 km/h (3 Bft) 96,16 %
17.06.2018 20:00 23,1 C 24,4 C 55 % 1013,9 hPa 0,0 l/m 7,7 km/h (2 Bft) W 0,55 h 0,178 mm 0,0 UV-I 45 W/m 13,4 C 22,7 C 12,7 km/h (3 Bft) 99,41 %
17.06.2018 21:00 21,2 C 24,4 C 65 % 1014,8 hPa 0,0 l/m 7,9 km/h (2 Bft) W 0,00 h 0,076 mm 0,0 UV-I 5 W/m 14,2 C 20,5 C 12,0 km/h (2 Bft) 98,33 %
17.06.2018 22:00 19,7 C 23,9 C 71 % 1015,5 hPa 0,0 l/m 10,1 km/h (2 Bft) W-SW 0,00 h 0,051 mm 0,0 UV-I 0 W/m 14,3 C 18,4 C 14,3 km/h (3 Bft) 99,00 %
17.06.2018 23:00 18,9 C 23,9 C 73 % 1016,2 hPa 0,0 l/m 8,1 km/h (2 Bft) W-SW 0,00 h 0,051 mm 0,0 UV-I 0 W/m 14,0 C 18,2 C 11,8 km/h (2 Bft) 96,34 %
Min-Datum _ 16.06.18 15.06.18 11.06.18 11.06.18 - 11.06.18 - - - - - 15.06.18 14.06.18 11.06.18 15.06.18
_ Min-Zeit 04:40 05:55 15:59 21:05 - 05:04 - - - - - 13:02 05:02 05:04 04:01
Minimum _ 10,5 C 21,7 C 35 % 1001,9 hPa - 0,0 km/h (0 Bft) - - - - - 8,6 C 8,2 C 0,0 km/h (0 Bft) 75,00 %
Max-Datum _ 11.06.18 11.06.18 13.06.18 17.06.18 13.06.18 11.06.18 - 12.06.18 11.06.18 12.06.18 15.06.18 11.06.18 11.06.18 11.06.18 11.06.18
_ Max-Zeit 16:02 17:10 01:11 23:48 00:18 21:43 - 05:20 14:00 12:43 12:45 11:51 16:00 21:43 00:06
Maximum _ 31,4 C 27,8 C 97 % 1016,4 hPa 4,0 l/m 27,8 km/h
O-NO (4 Bft)
- 0,08 h 0,610 mm 6,9 UV-I 1225 W/m 19,7 C 31,3 C 38,6 km/h
O (5 Bft)
100,00 %
Durchschnitt _ 18,7 C 24,1 C 76 % 1010,9 hPa #27,8 l/m 5,2 km/h (1 Bft) SW #49:22 h #25,502 mm 2,6 UV-I 300 W/m 13,7 C 18,4 C 7,9 km/h (2 Bft) 98,03 %